createdAt,value
2022-12-08T00:00:59.945Z,94219.53
2022-12-08T00:03:26.611Z,94222.81
2022-12-08T00:05:52.992Z,94222.16
2022-12-08T00:08:19.317Z,94219.22
2022-12-08T00:10:49.991Z,94210.44
2022-12-08T00:13:16.450Z,94201.06
2022-12-08T00:15:42.695Z,94207.41
2022-12-08T00:18:08.967Z,94204.50
2022-12-08T00:20:35.228Z,94205.13
2022-12-08T00:23:01.500Z,94197.44
2022-12-08T00:25:27.860Z,94195.13
2022-12-08T00:27:54.117Z,94195.53
2022-12-08T00:30:20.388Z,94190.47
2022-12-08T00:32:46.666Z,94189.94
2022-12-08T00:35:12.924Z,94191.88
2022-12-08T00:37:39.187Z,94189.78
2022-12-08T00:40:05.722Z,94183.91
2022-12-08T00:42:32.211Z,94184.06
2022-12-08T00:44:58.454Z,94184.72
2022-12-08T00:47:25.186Z,94184.72
2022-12-08T00:49:51.575Z,94185.84
2022-12-08T00:52:17.849Z,94180.81
2022-12-08T00:54:44.097Z,94174.25
2022-12-08T00:57:10.337Z,94177.88
2022-12-08T00:59:36.587Z,94173.94
2022-12-08T01:02:02.843Z,94184.06
2022-12-08T01:04:29.134Z,94178.47
2022-12-08T01:06:55.406Z,94175.16
2022-12-08T01:09:21.665Z,94175.00
2022-12-08T01:11:47.913Z,94179.75
2022-12-08T01:14:14.161Z,94171.56
2022-12-08T01:16:40.462Z,94169.44
2022-12-08T01:19:06.738Z,94177.81
2022-12-08T01:21:32.998Z,94179.53
2022-12-08T01:23:59.253Z,94175.16
2022-12-08T01:26:25.506Z,94177.91
2022-12-08T01:28:51.751Z,94177.75
2022-12-08T01:31:18.114Z,94176.63
2022-12-08T01:33:44.439Z,94171.25
2022-12-08T01:36:10.675Z,94181.47
2022-12-08T01:38:36.929Z,94174.31
2022-12-08T01:41:03.178Z,94175.06
2022-12-08T01:43:29.427Z,94166.28
2022-12-08T01:45:55.783Z,94167.56
2022-12-08T01:48:22.091Z,94168.16
2022-12-08T01:50:48.404Z,94160.84
2022-12-08T01:53:14.666Z,94163.53
2022-12-08T01:55:40.927Z,94164.44
2022-12-08T01:58:07.206Z,94164.50
2022-12-08T02:00:33.455Z,94161.38
2022-12-08T02:02:59.779Z,94154.56
2022-12-08T02:05:26.076Z,94158.63
2022-12-08T02:07:52.402Z,94153.09
2022-12-08T02:10:18.726Z,94154.97
2022-12-08T02:12:45.016Z,94146.50
2022-12-08T02:15:11.278Z,94142.41
2022-12-08T02:17:37.518Z,94147.91
2022-12-08T02:20:04.147Z,94137.97
2022-12-08T02:22:30.581Z,94137.31
2022-12-08T02:24:56.831Z,94134.53
2022-12-08T02:27:23.085Z,94130.59
2022-12-08T02:29:49.452Z,94122.94
2022-12-08T02:32:15.718Z,94122.78
2022-12-08T02:34:41.974Z,94112.91
2022-12-08T02:37:08.250Z,94113.72
2022-12-08T02:39:34.497Z,94100.56
2022-12-08T02:42:00.738Z,94108.50
2022-12-08T02:44:26.997Z,94105.09
2022-12-08T02:46:53.253Z,94096.75
2022-12-08T02:49:19.513Z,94091.28
2022-12-08T02:51:45.763Z,94083.63
2022-12-08T02:54:12.032Z,94086.22
2022-12-08T02:56:38.282Z,94091.22
2022-12-08T02:59:04.533Z,94078.97
2022-12-08T03:01:30.952Z,94074.63
2022-12-08T03:03:57.278Z,94079.19
2022-12-08T03:06:23.523Z,94072.47
2022-12-08T03:08:49.785Z,94081.63
2022-12-08T03:11:16.041Z,94084.38
2022-12-08T03:13:42.324Z,94081.16
2022-12-08T03:16:08.642Z,94081.16
2022-12-08T03:18:34.919Z,94079.84
2022-12-08T03:21:01.192Z,94067.69
2022-12-08T03:23:27.448Z,94070.72
2022-12-08T03:25:53.732Z,94066.22
2022-12-08T03:28:20.040Z,94059.00
2022-12-08T03:30:46.330Z,94068.06
2022-12-08T03:33:12.625Z,94058.34
2022-12-08T03:35:38.870Z,94058.84
2022-12-08T03:38:05.125Z,94062.28
2022-12-08T03:40:31.375Z,94050.84
2022-12-08T03:42:57.624Z,94051.31
2022-12-08T03:45:23.900Z,94051.44
2022-12-08T03:47:50.157Z,94049.69
2022-12-08T03:50:16.426Z,94052.94
2022-12-08T03:52:42.672Z,94046.09
2022-12-08T03:55:08.914Z,94044.31
2022-12-08T03:57:35.176Z,94038.13
2022-12-08T04:00:01.595Z,94044.66
2022-12-08T04:02:28.114Z,94044.00
2022-12-08T04:04:54.406Z,94036.84
2022-12-08T04:07:20.677Z,94042.75
2022-12-08T04:09:46.918Z,94033.59
2022-12-08T04:12:13.182Z,94037.16
2022-12-08T04:14:39.425Z,94034.94
2022-12-08T04:17:05.715Z,94034.94
2022-12-08T04:19:31.991Z,94028.69
2022-12-08T04:21:58.262Z,94029.34
2022-12-08T04:24:24.510Z,94020.59
2022-12-08T04:26:50.781Z,94016.03
2022-12-08T04:29:17.092Z,94020.25
2022-12-08T04:31:43.404Z,94024.53
2022-12-08T04:34:09.714Z,94014.78
2022-12-08T04:36:35.969Z,94013.97
2022-12-08T04:39:02.224Z,94013.47
2022-12-08T04:41:28.507Z,94010.75
2022-12-08T04:43:54.769Z,94020.47
2022-12-08T04:46:21.129Z,94016.09
2022-12-08T04:48:47.442Z,94017.88
2022-12-08T04:51:13.689Z,94007.47
2022-12-08T04:53:44.856Z,94008.28
2022-12-08T04:56:12.645Z,94006.66
2022-12-08T04:58:38.935Z,94015.94
2022-12-08T05:01:05.250Z,94000.34
2022-12-08T05:03:31.549Z,93999.50
2022-12-08T05:05:57.811Z,94009.91
2022-12-08T05:08:24.093Z,94007.97
2022-12-08T05:10:50.405Z,94006.66
2022-12-08T05:13:16.665Z,94013.78
2022-12-08T05:15:42.933Z,94009.72
2022-12-08T05:18:09.193Z,94010.97
2022-12-08T05:20:35.454Z,94008.22
2022-12-08T05:23:01.706Z,94009.03
2022-12-08T05:25:27.978Z,93995.59
2022-12-08T05:28:06.146Z,94008.75
2022-12-08T05:30:37.877Z,93993.44
2022-12-08T05:33:04.156Z,94002.22
2022-12-08T05:35:30.393Z,93996.84
2022-12-08T05:37:56.638Z,93990.69
2022-12-08T05:40:22.901Z,93988.75
2022-12-08T05:42:49.171Z,93984.50
2022-12-08T05:45:15.410Z,93988.91
2022-12-08T05:47:41.665Z,93989.41
2022-12-08T05:50:07.988Z,93985.50
2022-12-08T05:52:34.279Z,93982.06
2022-12-08T05:55:00.522Z,93986.97
2022-12-08T05:57:26.761Z,93984.31
2022-12-08T05:59:53.057Z,93993.53
2022-12-08T06:02:19.413Z,93987.06
2022-12-08T06:04:45.707Z,93995.31
2022-12-08T06:07:16.074Z,94000.38
2022-12-08T06:09:42.579Z,94001.22
2022-12-08T06:12:08.878Z,93992.56
2022-12-08T06:14:35.140Z,93991.25
2022-12-08T06:17:01.426Z,93989.25
2022-12-08T06:19:27.767Z,93989.56
2022-12-08T06:21:54.045Z,93994.94
2022-12-08T06:24:20.306Z,94000.31
2022-12-08T06:26:46.546Z,93991.69
2022-12-08T06:29:12.804Z,93996.78
2022-12-08T06:31:39.151Z,93998.44
2022-12-08T06:34:05.525Z,93994.88
2022-12-08T06:36:31.785Z,93989.03
2022-12-08T06:38:58.040Z,93992.47
2022-12-08T06:41:24.304Z,93985.38
2022-12-08T06:43:50.558Z,93988.66
2022-12-08T06:46:16.874Z,93990.81
2022-12-08T06:48:43.225Z,93994.59
2022-12-08T06:51:09.481Z,93985.41
2022-12-08T06:53:35.734Z,93981.47
2022-12-08T06:56:02.094Z,93981.69
2022-12-08T06:58:28.361Z,93988.72
2022-12-08T07:00:54.819Z,93995.31
2022-12-08T07:03:21.342Z,93994.94
2022-12-08T07:05:47.614Z,93991.47
2022-12-08T07:08:13.975Z,93991.22
2022-12-08T07:10:40.329Z,93995.63
2022-12-08T07:13:06.608Z,93989.75
2022-12-08T07:15:32.858Z,93978.66
2022-12-08T07:18:00.313Z,93986.97
2022-12-08T07:20:26.991Z,93995.84
2022-12-08T07:22:53.245Z,93996.78
2022-12-08T07:25:19.501Z,93987.72
2022-12-08T07:27:45.764Z,93990.81
2022-12-08T07:30:12.015Z,93985.78
2022-12-08T07:32:38.274Z,93984.63
2022-12-08T07:35:04.544Z,93984.81
2022-12-08T07:37:30.801Z,93984.69
2022-12-08T07:39:57.057Z,93985.81
2022-12-08T07:42:23.306Z,93992.00
2022-12-08T07:44:49.578Z,93987.94
2022-12-08T07:47:15.833Z,93992.81
2022-12-08T07:49:42.107Z,93995.13
2022-12-08T07:52:08.369Z,93995.59
2022-12-08T07:54:34.618Z,93986.47
2022-12-08T07:57:00.885Z,93982.94
2022-12-08T07:59:27.141Z,93975.63
2022-12-08T08:02:13.462Z,93976.28
2022-12-08T08:04:39.688Z,93975.97
2022-12-08T08:07:06.026Z,93983.25
2022-12-08T08:09:32.286Z,93985.72
2022-12-08T08:12:29.020Z,93979.41
2022-12-08T08:14:44.751Z,93983.63
2022-12-08T08:17:11.145Z,93984.94
2022-12-08T08:19:37.513Z,93979.28
2022-12-08T08:22:03.775Z,93974.88
2022-12-08T08:24:30.017Z,93980.44
2022-12-08T08:26:56.275Z,93988.34
2022-12-08T08:29:22.522Z,93979.06
2022-12-08T08:31:48.801Z,93974.19
2022-12-08T08:34:15.054Z,93971.81
2022-12-08T08:36:41.411Z,93967.25
2022-12-08T08:39:07.675Z,93960.88
2022-12-08T08:41:33.945Z,93956.03
2022-12-08T08:44:00.207Z,93967.56
2022-12-08T08:46:26.567Z,93965.00
2022-12-08T08:48:52.850Z,93958.03
2022-12-08T08:51:19.114Z,93959.56
2022-12-08T08:53:45.390Z,93953.19
2022-12-08T08:56:11.653Z,93952.38
2022-12-08T08:58:37.912Z,93960.69
2022-12-08T09:01:04.184Z,93950.94
2022-12-08T09:03:30.434Z,93952.59
2022-12-08T09:05:56.765Z,93940.38
2022-12-08T09:08:23.193Z,93947.88
2022-12-08T09:10:49.505Z,93958.00
2022-12-08T09:13:15.746Z,93959.81
2022-12-08T09:15:42.073Z,93958.16
2022-12-08T09:18:08.354Z,93961.75
2022-12-08T09:20:34.594Z,93957.19
2022-12-08T09:23:00.869Z,93959.28
2022-12-08T09:25:27.115Z,93942.63
2022-12-08T09:27:53.398Z,93936.31
2022-12-08T09:30:19.650Z,93944.44
2022-12-08T09:32:45.895Z,93931.44
2022-12-08T09:35:12.158Z,93937.28
2022-12-08T09:37:38.406Z,93936.97
2022-12-08T09:40:04.923Z,93933.88
2022-12-08T09:42:31.451Z,93935.03
2022-12-08T09:44:57.694Z,93930.97
2022-12-08T09:47:23.940Z,93934.03
2022-12-08T09:49:50.213Z,93939.91
2022-12-08T09:52:16.473Z,93941.22
2022-12-08T09:54:42.771Z,93943.81
2022-12-08T09:57:09.044Z,93945.13
2022-12-08T09:59:35.309Z,93939.09
2022-12-08T10:02:01.672Z,93931.25
2022-12-08T10:04:27.985Z,93913.81
2022-12-08T10:06:54.230Z,93901.63
2022-12-08T10:09:23.006Z,93907.66
2022-12-08T10:11:49.400Z,93912.38
2022-12-08T10:14:15.644Z,93913.69
2022-12-08T10:16:41.936Z,93909.78
2022-12-08T10:19:08.238Z,93905.88
2022-12-08T10:21:34.506Z,93891.69
2022-12-08T10:24:00.758Z,93889.09
2022-12-08T10:26:27.010Z,93879.31
2022-12-08T10:28:53.256Z,93875.41
2022-12-08T10:31:19.554Z,93877.34
2022-12-08T10:33:45.871Z,93869.53
2022-12-08T10:36:12.134Z,93863.50
2022-12-08T10:38:38.401Z,93867.41
2022-12-08T10:41:04.650Z,93873.59
2022-12-08T10:43:30.926Z,93870.69
2022-12-08T10:45:57.188Z,93882.91
2022-12-08T10:48:23.434Z,93867.09
2022-12-08T10:50:49.687Z,93870.19
2022-12-08T10:53:15.950Z,93863.75
2022-12-08T10:55:42.213Z,93869.19
2022-12-08T10:58:08.475Z,93865.91
2022-12-08T11:00:34.864Z,93859.22
2022-12-08T11:03:01.216Z,93856.25
2022-12-08T11:05:27.494Z,93845.34
2022-12-08T11:07:53.813Z,93841.13
2022-12-08T11:10:20.175Z,93842.56
2022-12-08T11:12:46.533Z,93838.19
2022-12-08T11:15:12.770Z,93839.84
2022-12-08T11:17:39.006Z,93841.13
2022-12-08T11:20:05.720Z,93835.72
2022-12-08T11:22:32.362Z,93832.00
2022-12-08T11:24:58.631Z,93834.06
2022-12-08T11:27:24.872Z,93832.63
2022-12-08T11:29:51.126Z,93823.00
2022-12-08T11:32:17.393Z,93826.88
2022-12-08T11:34:43.635Z,93821.50
2022-12-08T11:37:09.881Z,93828.03
2022-12-08T11:39:36.135Z,93826.91
2022-12-08T11:42:02.394Z,93810.28
2022-12-08T11:44:28.664Z,93807.34
2022-12-08T11:46:54.913Z,93805.88
2022-12-08T11:49:21.173Z,93800.84
2022-12-08T11:51:47.414Z,93803.66
2022-12-08T11:54:13.659Z,93804.34
2022-12-08T11:56:39.899Z,93798.53
2022-12-08T11:59:06.177Z,93808.09
2022-12-08T12:01:32.444Z,93805.03
2022-12-08T12:03:58.706Z,93793.88
2022-12-08T12:06:46.464Z,93795.03
2022-12-08T12:09:11.224Z,93793.50
2022-12-08T12:11:37.474Z,93791.44
2022-12-08T12:14:03.739Z,93792.28
2022-12-08T12:16:30.104Z,93788.69
2022-12-08T12:18:56.394Z,93786.78
2022-12-08T12:21:22.644Z,93775.81
2022-12-08T12:23:48.899Z,93779.56
2022-12-08T12:26:15.162Z,93782.00
2022-12-08T12:28:41.426Z,93777.59
2022-12-08T12:31:07.732Z,93772.03
2022-12-08T12:33:34.013Z,93770.03
2022-12-08T12:36:00.247Z,93775.03
2022-12-08T12:38:26.526Z,93763.91
2022-12-08T12:40:52.769Z,93756.84
2022-12-08T12:43:19.030Z,93753.06
2022-12-08T12:45:45.333Z,93760.28
2022-12-08T12:48:11.667Z,93758.00
2022-12-08T12:50:37.926Z,93750.16
2022-12-08T12:53:06.889Z,93745.75
2022-12-08T12:55:36.993Z,93751.56
2022-12-08T12:58:03.253Z,93742.38
2022-12-08T13:00:29.515Z,93741.69
2022-12-08T13:02:55.788Z,93735.34
2022-12-08T13:05:22.159Z,93742.69
2022-12-08T13:07:48.453Z,93740.88
2022-12-08T13:10:14.742Z,93736.22
2022-12-08T13:12:40.987Z,93737.81
2022-12-08T13:15:07.331Z,93724.63
2022-12-08T13:17:33.574Z,93721.97
2022-12-08T13:19:59.833Z,93723.72
2022-12-08T13:22:26.079Z,93719.19
2022-12-08T13:24:52.339Z,93722.34
2022-12-08T13:27:18.586Z,93726.72
2022-12-08T13:29:44.849Z,93724.09
2022-12-08T13:32:11.101Z,93724.41
2022-12-08T13:34:37.362Z,93730.31
2022-12-08T13:37:03.609Z,93722.81
2022-12-08T13:39:29.866Z,93714.00
2022-12-08T13:41:56.131Z,93715.28
2022-12-08T13:58:13.547Z,93696.78
2022-12-08T14:00:39.794Z,93691.56
2022-12-08T14:03:06.104Z,93697.78
2022-12-08T14:06:03.279Z,93696.06
2022-12-08T14:08:42.925Z,93695.19
2022-12-08T14:11:04.939Z,93689.94
2022-12-08T14:13:31.206Z,93685.69
2022-12-08T14:15:57.528Z,93686.03
2022-12-08T14:18:23.843Z,93691.09
2022-12-08T14:21:19.385Z,93681.69
2022-12-08T14:23:36.337Z,93689.34
2022-12-08T14:26:02.586Z,93691.66
2022-12-08T14:28:28.848Z,93682.75
2022-12-08T14:30:55.150Z,93680.31
2022-12-08T14:33:21.450Z,93676.63
2022-12-08T14:35:47.717Z,93679.13
2022-12-08T14:38:14.136Z,93672.97
2022-12-08T14:40:40.464Z,93676.09
2022-12-08T14:43:06.718Z,93674.91
2022-12-08T14:45:34.857Z,93667.63
2022-12-08T14:48:01.373Z,93669.97
2022-12-08T14:50:27.636Z,93667.31
2022-12-08T14:52:53.906Z,93665.88
2022-12-08T14:55:20.150Z,93668.22
2022-12-08T14:57:46.425Z,93663.59
2022-12-08T15:00:12.683Z,93675.69
2022-12-08T15:02:38.952Z,93670.84
2022-12-08T15:05:05.286Z,93676.88
2022-12-08T15:07:31.593Z,93675.06
2022-12-08T15:09:57.839Z,93667.25
2022-12-08T15:12:26.997Z,93676.06
2022-12-08T15:14:53.830Z,93673.78
2022-12-08T15:17:20.089Z,93669.28
2022-12-08T15:19:46.364Z,93664.56
2022-12-08T15:22:12.610Z,93668.66
2022-12-08T15:24:38.872Z,93671.09
2022-12-08T15:27:05.136Z,93661.81
2022-12-08T15:29:31.377Z,93652.69
2022-12-08T15:31:57.695Z,93659.38
2022-12-08T15:34:23.980Z,93661.53
2022-12-08T15:36:50.222Z,93664.97
2022-12-08T15:39:16.462Z,93659.28
2022-12-08T15:41:42.717Z,93655.56
2022-12-08T15:44:08.976Z,93661.09
2022-12-08T15:46:35.264Z,93655.59
2022-12-08T15:49:01.561Z,93656.25
2022-12-08T15:51:27.826Z,93653.50
2022-12-08T15:53:54.068Z,93654.84
2022-12-08T15:56:27.315Z,93647.34
2022-12-08T15:58:55.790Z,93642.28
2022-12-08T16:01:23.123Z,93640.69
2022-12-08T16:09:22.049Z,93647.75
2022-12-08T16:12:06.063Z,93645.16
2022-12-08T16:17:19.991Z,93642.72
2022-12-08T16:19:46.235Z,93646.59
2022-12-08T16:25:14.701Z,93642.53
2022-12-08T16:28:01.210Z,93642.06
2022-12-08T16:30:29.898Z,93645.16
2022-12-08T16:32:56.147Z,93642.38
2022-12-08T16:35:22.394Z,93639.78
2022-12-08T16:37:48.687Z,93635.41
2022-12-08T16:40:14.969Z,93635.41
2022-12-08T16:42:41.228Z,93633.16
2022-12-08T16:45:07.773Z,93633.16
2022-12-08T16:47:34.236Z,93636.06
2022-12-08T16:50:00.495Z,93637.56
2022-12-08T16:52:26.738Z,93640.81
2022-12-08T16:54:53.010Z,93641.16
2022-12-08T16:57:19.269Z,93641.31
2022-12-08T16:59:45.510Z,93636.63
2022-12-08T17:02:16.308Z,93640.69
2022-12-08T17:04:42.850Z,93641.00
2022-12-08T17:07:09.151Z,93647.50
2022-12-08T17:09:35.394Z,93640.03
2022-12-08T17:12:04.038Z,93634.19
2022-12-08T17:14:30.628Z,93637.09
2022-12-08T17:16:56.921Z,93635.47
2022-12-08T17:19:23.206Z,93634.03
2022-12-08T17:21:49.462Z,93637.28
2022-12-08T17:24:20.182Z,93637.91
2022-12-08T17:26:48.107Z,93641.34
2022-12-08T17:29:14.359Z,93635.47
2022-12-08T17:31:40.650Z,93638.25
2022-12-08T17:34:06.944Z,93636.94
2022-12-08T17:36:33.209Z,93637.91
2022-12-08T17:38:59.454Z,93636.94
2022-12-08T17:41:25.706Z,93634.34
2022-12-08T17:43:51.964Z,93635.66
2022-12-08T17:46:18.340Z,93638.25
2022-12-08T17:48:44.662Z,93638.91
2022-12-08T17:51:10.918Z,93643.47
2022-12-08T17:53:37.662Z,93641.19
2022-12-08T17:56:04.029Z,93639.41
2022-12-08T17:58:30.270Z,93643.63
2022-12-08T18:00:56.566Z,93642.97
2022-12-08T18:03:22.866Z,93638.72
2022-12-08T18:05:49.109Z,93639.06
2022-12-08T18:08:15.434Z,93636.13
2022-12-08T18:10:41.719Z,93634.84
2022-12-08T18:13:08.054Z,93627.03
2022-12-08T18:15:38.970Z,93625.06
2022-12-08T18:18:05.618Z,93625.59
2022-12-08T18:20:31.880Z,93624.75
2022-12-08T18:22:58.142Z,93621.84
2022-12-08T18:25:24.389Z,93626.22
2022-12-08T18:27:50.642Z,93617.25
2022-12-08T18:30:16.891Z,93614.03
2022-12-08T18:32:43.135Z,93615.47
2022-12-08T18:35:09.396Z,93614.81
2022-12-08T18:37:35.637Z,93618.06
2022-12-08T18:40:01.994Z,93615.31
2022-12-08T18:42:28.438Z,93623.78
2022-12-08T18:44:54.707Z,93599.38
2022-12-08T18:47:20.962Z,93593.66
2022-12-08T18:49:47.205Z,93599.53
2022-12-08T18:52:13.453Z,93595.94
2022-12-08T18:57:25.958Z,93599.66
2022-12-08T18:59:52.253Z,93597.56
2022-12-08T19:02:18.617Z,93590.56
2022-12-08T19:04:44.904Z,93591.19
2022-12-08T19:07:11.165Z,93592.19
2022-12-08T19:09:37.423Z,93588.25
2022-12-08T19:12:03.673Z,93593.47
2022-12-08T19:14:29.925Z,93605.53
2022-12-08T19:16:56.176Z,93598.19
2022-12-08T19:19:22.439Z,93595.75
2022-12-08T19:21:48.723Z,93594.75
2022-12-08T19:24:14.966Z,93596.91
2022-12-08T19:26:41.210Z,93583.53
2022-12-08T19:29:07.491Z,93587.13
2022-12-08T19:31:33.844Z,93580.94
2022-12-08T19:34:00.156Z,93580.59
2022-12-08T19:36:26.409Z,93585.00
2022-12-08T19:38:52.682Z,93584.34
2022-12-08T19:41:18.938Z,93588.41
2022-12-08T19:43:45.178Z,93586.50
2022-12-08T19:46:11.617Z,93591.03
2022-12-08T19:48:38.008Z,93595.13
2022-12-08T19:51:04.270Z,93585.53
2022-12-08T19:53:30.580Z,93591.22
2022-12-08T19:55:56.945Z,93589.94
2022-12-08T19:58:23.204Z,93587.19
2022-12-08T20:00:49.464Z,93585.69
2022-12-08T20:03:15.804Z,93588.78
2022-12-08T20:05:42.117Z,93580.81
2022-12-08T20:08:08.469Z,93580.97
2022-12-08T20:10:34.777Z,93584.19
2022-12-08T20:13:01.046Z,93575.56
2022-12-08T20:15:27.325Z,93566.97
2022-12-08T20:17:53.569Z,93573.47
2022-12-08T20:20:19.829Z,93564.53
2022-12-08T20:22:46.084Z,93568.13
2022-12-08T20:25:13.249Z,93572.81
2022-12-08T20:27:39.703Z,93570.72
2022-12-08T20:30:05.981Z,93574.28
2022-12-08T20:32:32.239Z,93577.53
2022-12-08T20:34:58.520Z,93566.13
2022-12-08T20:37:24.796Z,93565.28
2022-12-08T20:39:51.086Z,93563.31
2022-12-08T20:42:17.354Z,93556.50
2022-12-08T20:44:43.607Z,93556.31
2022-12-08T20:47:10.055Z,93558.94
2022-12-08T20:49:36.496Z,93561.22
2022-12-08T20:52:02.840Z,93543.63
2022-12-08T20:54:29.231Z,93546.41
2022-12-08T20:56:55.569Z,93544.06
2022-12-08T20:59:21.964Z,93536.47
2022-12-08T21:01:48.474Z,93541.34
2022-12-08T21:04:14.994Z,93540.38
2022-12-08T21:06:41.511Z,93532.72
2022-12-08T21:09:07.851Z,93528.31
2022-12-08T21:11:34.193Z,93519.53
2022-12-08T21:14:00.634Z,93518.72
2022-12-08T21:16:27.024Z,93540.19
2022-12-08T21:18:53.341Z,93544.91
2022-12-08T21:21:19.697Z,93554.84
2022-12-08T21:23:46.246Z,93560.50
2022-12-08T21:26:12.715Z,93553.91
2022-12-08T21:28:39.109Z,93553.91
2022-12-08T21:31:05.571Z,93555.53
2022-12-08T21:33:32.135Z,93549.88
2022-12-08T21:35:58.447Z,93556.34
2022-12-08T21:38:24.697Z,93569.19
2022-12-08T21:40:51.072Z,93571.34
2022-12-08T21:43:17.456Z,93567.41
2022-12-08T21:45:43.727Z,93567.09
2022-12-08T21:48:11.982Z,93573.09
2022-12-08T21:50:38.648Z,93570.16
2022-12-08T21:53:04.987Z,93581.69
2022-12-08T21:55:31.449Z,93588.84
2022-12-08T21:57:57.854Z,93574.53
2022-12-08T22:00:24.304Z,93580.41
2022-12-08T22:02:50.811Z,93579.44
2022-12-08T22:05:17.154Z,93576.69
2022-12-08T22:07:43.749Z,93564.97
2022-12-08T22:10:10.718Z,93567.28
2022-12-08T22:12:37.486Z,93558.16
2022-12-08T22:15:03.760Z,93559.00
2022-12-08T22:17:30.416Z,93564.19
2022-12-08T22:19:56.888Z,93557.38
2022-12-08T22:22:23.126Z,93549.09
2022-12-08T22:24:49.390Z,93553.50
2022-12-08T22:27:15.754Z,93555.78
2022-12-08T22:29:42.139Z,93556.25
2022-12-08T22:32:08.694Z,93550.94
2022-12-08T22:34:35.010Z,93543.78
2022-12-08T22:37:01.251Z,93541.31
2022-12-08T22:39:27.680Z,93537.91
2022-12-08T22:41:53.916Z,93543.91
2022-12-08T22:44:20.188Z,93541.63
2022-12-08T22:46:46.627Z,93531.38
2022-12-08T22:49:13.065Z,93528.94
2022-12-08T22:51:39.480Z,93532.84
2022-12-08T22:54:05.962Z,93522.28
2022-12-08T22:56:32.270Z,93528.75
2022-12-08T22:58:58.575Z,93536.09
2022-12-08T23:01:24.872Z,93538.81
2022-12-08T23:03:51.213Z,93531.50
2022-12-08T23:06:17.920Z,93523.88
2022-12-08T23:08:44.503Z,93529.56
2022-12-08T23:11:10.942Z,93529.06
2022-12-08T23:13:38.299Z,93525.78
2022-12-08T23:16:04.701Z,93526.31
2022-12-08T23:18:31.138Z,93515.09
2022-12-08T23:20:57.387Z,93520.81
2022-12-08T23:23:23.909Z,93517.22
2022-12-08T23:25:50.190Z,93514.63
2022-12-08T23:28:16.657Z,93515.31
2022-12-08T23:30:43.096Z,93505.91
2022-12-08T23:33:09.468Z,93507.50
2022-12-08T23:35:35.998Z,93511.09
2022-12-08T23:38:02.489Z,93502.13
2022-12-08T23:40:28.856Z,93502.97
2022-12-08T23:42:55.150Z,93490.97
2022-12-08T23:45:21.640Z,93490.97
2022-12-08T23:47:47.925Z,93493.41
2022-12-08T23:50:14.185Z,93483.81
2022-12-08T23:52:40.638Z,93481.38
2022-12-08T23:55:06.941Z,93480.88
2022-12-08T23:57:33.229Z,93477.81
2022-12-08T23:59:59.480Z,93465.28
